Time;durP1;ratioP1;P1;durP2;ratioP2;P2;SDS_P1;SDS_P2;PMS_P1;PMS_P2;Temp;Humidity;BMP_temperature;BMP_pressure;BME280_temperature;BME280_humidity;BME280_pressure;Samples;Min_cycle;Max_cycle;Signal;HPM_P1;HPM_P2
2021/11/05 00:00:52;;;;;;;3.75;1.60;;;;;;;20.49;40.63;101439.69;5074601;28;20025;-61
2021/11/05 00:03:21;;;;;;;3.60;1.63;;;;;;;20.47;40.50;101438.97;5074484;28;20043;-61
2021/11/05 00:05:46;;;;;;;3.78;1.63;;;;;;;20.42;40.55;101435.84;5074229;28;20177;-61
2021/11/05 00:08:15;;;;;;;2.85;1.40;;;;;;;20.39;40.30;101439.59;5074503;28;20492;-60
2021/11/05 00:10:42;;;;;;;5.43;1.90;;;;;;;20.36;40.60;101442.50;5074584;28;20025;-61
2021/11/05 00:13:08;;;;;;;3.05;1.52;;;;;;;20.34;40.52;101443.59;5073445;28;20028;-61
2021/11/05 00:15:36;;;;;;;3.80;1.55;;;;;;;20.29;40.37;101450.09;5074398;28;20165;-61
2021/11/05 00:18:05;;;;;;;3.53;1.70;;;;;;;20.28;40.65;101450.22;5074182;28;20031;-60
2021/11/05 00:20:31;;;;;;;3.13;1.50;;;;;;;20.26;40.62;101452.16;5073859;28;20024;-61
2021/11/05 00:22:57;;;;;;;3.38;1.60;;;;;;;20.22;40.51;101450.69;5074095;28;20479;-61
2021/11/05 00:25:25;;;;;;;4.00;1.85;;;;;;;20.19;40.39;101457.09;5074403;28;20036;-61
2021/11/05 00:27:51;;;;;;;4.20;1.80;;;;;;;20.18;40.43;101463.34;5073584;28;20025;-61
2021/11/05 00:30:16;;;;;;;3.78;2.00;;;;;;;20.15;40.46;101460.94;5073353;28;20058;-60
2021/11/05 00:32:42;;;;;;;3.90;1.88;;;;;;;20.13;40.71;101462.06;5074397;28;20523;-60
2021/11/05 00:35:12;;;;;;;4.43;1.92;;;;;;;20.10;40.47;101463.97;5073705;28;20024;-60
2021/11/05 00:37:37;;;;;;;3.40;1.60;;;;;;;20.09;40.72;101474.66;5074049;28;20037;-60
2021/11/05 00:40:05;;;;;;;3.17;1.70;;;;;;;20.06;40.55;101473.13;5073044;28;20330;-60
2021/11/05 00:42:30;;;;;;;3.45;1.60;;;;;;;20.04;40.46;101475.03;5073891;28;20464;-62
2021/11/05 00:44:55;;;;;;;3.30;1.70;;;;;;;20.04;40.37;101484.78;5073813;28;20108;-61
2021/11/05 00:47:21;;;;;;;3.87;1.70;;;;;;;20.02;40.39;101489.38;5073154;28;20021;-60
2021/11/05 00:49:52;;;;;;;3.72;1.80;;;;;;;19.99;40.42;101479.84;5074054;28;20318;-60
2021/11/05 00:52:17;;;;;;;3.75;1.48;;;;;;;19.98;40.53;101490.56;5073562;28;20036;-60
2021/11/05 00:54:43;;;;;;;3.50;1.85;;;;;;;19.94;40.39;101482.84;5072803;28;20508;-61
2021/11/05 00:57:08;;;;;;;4.72;1.73;;;;;;;19.92;40.23;101492.72;5073534;28;20036;-61
2021/11/05 00:59:34;;;;;;;3.47;1.60;;;;;;;19.91;40.54;101493.69;5073744;28;20021;-61
2021/11/05 01:01:59;;;;;;;3.85;1.80;;;;;;;19.90;40.44;101496.44;5072498;28;20109;-60
2021/11/05 01:04:28;;;;;;;3.65;1.70;;;;;;;19.89;40.48;101492.13;5073733;28;20078;-60
2021/11/05 01:06:53;;;;;;;4.70;1.77;;;;;;;19.87;40.31;101491.41;5073648;28;20021;-61
2021/11/05 01:09:18;;;;;;;3.47;1.60;;;;;;;19.85;40.47;101491.53;5072552;28;20035;-60
2021/11/05 01:11:44;;;;;;;3.87;1.53;;;;;;;19.82;40.62;101494.44;5073284;28;20103;-60
2021/11/05 01:14:15;;;;;;;4.40;1.70;;;;;;;19.80;40.52;101496.31;5073196;28;20328;-60
2021/11/05 01:16:44;;;;;;;3.55;1.63;;;;;;;19.80;40.33;101503.44;5072853;28;20028;-61
2021/11/05 01:19:12;;;;;;;2.83;1.40;;;;;;;19.79;39.73;101509.66;5072765;28;20456;-61
2021/11/05 01:21:37;;;;;;;3.10;1.60;;;;;;;19.77;40.24;101511.59;5072762;28;20399;-61
2021/11/05 01:24:03;;;;;;;3.65;1.73;;;;;;;19.77;40.42;101516.88;5072281;28;20028;-61
2021/11/05 01:26:28;;;;;;;3.17;1.50;;;;;;;19.76;40.28;101524.00;5073065;28;20028;-60
2021/11/05 01:28:54;;;;;;;4.13;1.63;;;;;;;19.73;40.16;101518.91;5073137;28;20128;-60
2021/11/05 01:31:19;;;;;;;3.95;1.67;;;;;;;19.71;40.32;101521.66;5072137;28;20273;-61
2021/11/05 01:33:45;;;;;;;4.32;1.48;;;;;;;19.70;40.48;101527.91;5073041;28;20021;-61
2021/11/05 01:36:12;;;;;;;3.75;1.50;;;;;;;19.69;40.27;101535.97;5071882;28;20028;-62
2021/11/05 01:38:37;;;;;;;3.03;1.50;;;;;;;19.68;40.45;101536.94;5072968;28;20444;-61
2021/11/05 01:41:05;;;;;;;3.53;1.50;;;;;;;19.66;40.35;101533.53;5072483;28;20066;-61
2021/11/05 01:43:30;;;;;;;3.47;1.60;;;;;;;19.65;40.29;101537.16;5072263;28;20037;-61
2021/11/05 01:45:56;;;;;;;2.75;1.48;;;;;;;19.64;40.18;101543.41;5072951;28;20031;-61
2021/11/05 01:48:21;;;;;;;4.13;1.48;;;;;;;19.62;40.15;101542.69;5072345;28;20024;-61
2021/11/05 01:50:47;;;;;;;2.53;1.25;;;;;;;19.61;39.99;101538.34;5072142;28;20132;-60
2021/11/05 01:53:13;;;;;;;3.33;1.70;;;;;;;19.59;40.30;101538.47;5072447;28;20460;-61
2021/11/05 01:55:38;;;;;;;3.42;1.40;;;;;;;19.58;40.50;101540.28;5072427;28;20040;-61
2021/11/05 01:58:04;;;;;;;3.05;1.35;;;;;;;19.58;40.41;101544.72;5071487;28;20093;-60
2021/11/05 02:00:31;;;;;;;3.03;1.30;;;;;;;19.55;40.42;101545.81;5072722;28;20029;-61
2021/11/05 02:02:57;;;;;;;3.13;1.20;;;;;;;19.54;40.07;101549.41;5072106;28;20530;-61
2021/11/05 02:05:22;;;;;;;2.58;1.40;;;;;;;19.53;40.16;101554.78;5071747;28;20468;-61
2021/11/05 02:07:57;;;;;;;2.78;1.40;;;;;;;19.53;40.42;101560.09;5072320;28;20024;-61
2021/11/05 02:10:26;;;;;;;2.35;1.10;;;;;;;19.51;40.33;101562.84;5072587;28;20037;-61
2021/11/05 02:12:53;;;;;;;2.50;1.20;;;;;;;19.51;39.99;101562.00;5071985;28;20445;-61
2021/11/05 02:15:18;;;;;;;3.53;1.30;;;;;;;19.49;40.19;101561.28;5072056;28;20056;-61
2021/11/05 02:17:45;;;;;;;2.83;1.33;;;;;;;19.48;40.28;101563.06;5072436;28;20059;-61
2021/11/05 02:20:12;;;;;;;3.72;1.23;;;;;;;19.45;40.43;101565.94;5071245;28;20459;-61
2021/11/05 02:22:38;;;;;;;3.58;1.50;;;;;;;19.45;40.31;101571.25;5072387;28;20481;-61
2021/11/05 02:25:04;;;;;;;2.53;1.10;;;;;;;19.44;40.30;101577.50;5072203;28;20072;-61
2021/11/05 02:27:31;;;;;;;2.78;1.25;;;;;;;19.44;40.27;101571.34;5071639;28;20051;-61
2021/11/05 02:30:01;;;;;;;3.08;1.20;;;;;;;19.43;40.28;101575.81;5072038;28;20047;-62
2021/11/05 02:32:26;;;;;;;2.78;1.20;;;;;;;19.43;40.05;101581.09;5071331;28;20024;-61
2021/11/05 02:34:52;;;;;;;2.97;1.20;;;;;;;19.41;40.25;101585.66;5072161;28;20032;-60
2021/11/05 02:37:25;;;;;;;2.53;1.02;;;;;;;19.40;40.05;101589.25;5071808;28;20022;-61
2021/11/05 02:39:51;;;;;;;2.50;1.30;;;;;;;19.39;40.32;101593.72;5071660;28;20353;-61
2021/11/05 02:42:16;;;;;;;2.30;1.02;;;;;;;19.37;40.25;101590.31;5071770;28;20548;-60
2021/11/05 02:44:42;;;;;;;2.22;1.00;;;;;;;19.37;40.25;101594.75;5072219;28;20103;-61
2021/11/05 02:47:27;;;;;;;2.97;1.20;;;;;;;19.36;39.94;101595.75;5070942;28;20024;-61
2021/11/05 02:49:55;;;;;;;3.00;1.20;;;;;;;19.36;40.01;101598.38;5071773;28;20027;-61
2021/11/05 02:52:23;;;;;;;2.40;1.10;;;;;;;19.34;39.88;101593.22;5071833;28;20038;-59
2021/11/05 02:54:49;;;;;;;2.60;1.13;;;;;;;19.35;39.88;101612.56;5071207;28;20072;-61
2021/11/05 02:57:15;;;;;;;3.15;1.20;;;;;;;19.33;39.99;101612.66;5071766;28;20028;-61
2021/11/05 02:59:41;;;;;;;2.50;1.30;;;;;;;19.35;40.31;101617.84;5073070;28;20041;-62
2021/11/05 03:02:07;;;;;;;2.25;1.17;;;;;;;19.40;40.40;101619.16;5074820;28;20036;-60
2021/11/05 03:04:32;;;;;;;2.50;1.00;;;;;;;19.49;39.97;101620.28;5075958;28;20025;-61
2021/11/05 03:07:04;;;;;;;3.05;1.10;;;;;;;19.58;40.11;101626.66;5075786;28;20443;-61
2021/11/05 03:09:32;;;;;;;2.38;1.17;;;;;;;19.63;39.96;101623.69;5075215;28;20024;-61
2021/11/05 03:11:59;;;;;;;2.85;1.00;;;;;;;19.68;39.61;101629.50;5075541;28;20077;-60
2021/11/05 03:14:25;;;;;;;2.25;0.95;;;;;;;19.71;39.66;101627.44;5075767;28;20028;-62
2021/11/05 03:16:51;;;;;;;2.65;0.93;;;;;;;19.77;39.44;101633.25;5074737;28;20115;-61
2021/11/05 03:19:17;;;;;;;1.98;1.00;;;;;;;19.78;39.31;101641.06;5075483;28;20029;-60
2021/11/05 03:21:42;;;;;;;1.92;0.98;;;;;;;19.78;39.14;101643.72;5074967;28;20033;-61
2021/11/05 03:24:07;;;;;;;2.25;0.95;;;;;;;19.80;39.05;101649.72;5075243;28;20051;-61
2021/11/05 03:26:34;;;;;;;2.35;1.02;;;;;;;19.81;38.74;101656.72;5075537;28;20017;-60
2021/11/05 03:28:59;;;;;;;2.33;1.08;;;;;;;19.82;38.96;101649.63;5074436;28;20040;-61
2021/11/05 03:31:24;;;;;;;2.33;0.98;;;;;;;19.81;38.98;101648.78;5075326;28;20507;-61
2021/11/05 03:33:50;;;;;;;1.85;1.02;;;;;;;19.80;38.97;101652.38;5075509;28;20024;-60
2021/11/05 03:36:15;;;;;;;3.40;1.00;;;;;;;19.79;38.97;101658.66;5074366;28;20028;-60
2021/11/05 03:38:41;;;;;;;2.28;0.95;;;;;;;19.77;39.05;101655.25;5075531;28;20055;-60
2021/11/05 03:41:06;;;;;;;2.33;0.80;;;;;;;19.77;39.00;101662.34;5074707;28;20031;-60
2021/11/05 03:43:34;;;;;;;1.98;1.02;;;;;;;19.77;39.05;101668.47;5074520;28;20195;-62
2021/11/05 03:46:01;;;;;;;3.35;1.00;;;;;;;19.74;39.00;101680.13;5074738;28;20033;-60
2021/11/05 03:48:26;;;;;;;2.03;0.93;;;;;;;19.75;39.01;101678.31;5075443;28;20159;-61
2021/11/05 03:50:54;;;;;;;2.25;1.00;;;;;;;19.75;38.80;101680.94;5074502;28;20111;-60
2021/11/05 03:53:20;;;;;;;1.48;0.80;;;;;;;19.72;39.14;101683.81;5074639;28;20453;-61
2021/11/05 03:55:45;;;;;;;2.20;0.90;;;;;;;19.71;39.05;101690.91;5074132;28;20155;-61
2021/11/05 03:58:10;;;;;;;1.43;0.80;;;;;;;19.74;38.86;101684.53;5072794;28;20025;-60
2021/11/05 04:00:35;;;;;;;2.63;0.80;;;;;;;19.77;38.94;101696.72;5073699;28;20281;-60
2021/11/05 04:03:01;;;;;;;2.97;1.00;;;;;;;19.79;38.84;101700.09;5073463;28;20035;-61
2021/11/05 04:05:27;;;;;;;3.42;1.00;;;;;;;19.81;38.86;101699.03;5073011;28;20056;-60
2021/11/05 04:07:52;;;;;;;2.33;0.90;;;;;;;19.82;38.91;101708.66;5073673;28;20060;-62
2021/11/05 04:10:18;;;;;;;3.28;0.98;;;;;;;19.84;38.84;101719.13;5073236;28;20448;-60
2021/11/05 04:12:43;;;;;;;2.30;0.95;;;;;;;19.85;38.44;101719.03;5072837;28;20028;-61
2021/11/05 04:15:09;;;;;;;2.28;0.80;;;;;;;19.85;38.62;101718.16;5072839;28;20097;-60
2021/11/05 04:17:35;;;;;;;2.13;1.00;;;;;;;19.83;38.51;101723.56;5073255;28;20459;-61
2021/11/05 04:20:02;;;;;;;1.80;1.00;;;;;;;19.81;38.70;101722.84;5072051;28;20497;-61
2021/11/05 04:22:27;;;;;;;1.92;0.90;;;;;;;19.80;38.41;101731.72;5073191;28;20045;-61
2021/11/05 04:24:53;;;;;;;2.13;0.90;;;;;;;19.80;38.39;101737.00;5072567;28;20032;-60
2021/11/05 04:27:18;;;;;;;1.77;0.80;;;;;;;19.78;38.42;101743.41;5072833;28;20020;-61
2021/11/05 04:29:44;;;;;;;2.47;1.00;;;;;;;19.79;38.38;101750.34;5073238;28;20377;-61
2021/11/05 04:32:09;;;;;;;1.98;1.00;;;;;;;19.76;38.39;101746.16;5072314;28;20527;-61
2021/11/05 04:34:34;;;;;;;2.88;0.90;;;;;;;19.74;38.59;101756.81;5073194;28;20017;-61
2021/11/05 04:36:59;;;;;;;1.60;0.77;;;;;;;19.73;38.60;101763.03;5073009;28;20037;-60
2021/11/05 04:39:26;;;;;;;2.63;1.10;;;;;;;19.72;38.63;101763.16;5072774;28;20056;-60
2021/11/05 04:41:52;;;;;;;2.05;0.82;;;;;;;19.72;38.51;101771.94;5073131;28;20032;-61
2021/11/05 04:44:18;;;;;;;1.33;0.77;;;;;;;19.72;38.61;101774.56;5072685;28;20391;-61
2021/11/05 04:46:47;;;;;;;3.65;1.00;;;;;;;19.72;38.47;101781.66;5072415;28;20392;-61
2021/11/05 04:49:12;;;;;;;1.92;0.80;;;;;;;19.70;38.58;101773.84;5072674;28;20050;-61
2021/11/05 04:51:38;;;;;;;1.88;0.77;;;;;;;19.71;38.49;101780.84;5072873;28;20036;-60
2021/11/05 04:54:03;;;;;;;1.60;0.88;;;;;;;19.74;38.71;101782.41;5071932;28;20036;-60
2021/11/05 04:56:29;;;;;;;2.03;0.87;;;;;;;19.76;38.69;101788.47;4953671;28;3426326;-60
2021/11/05 04:58:54;;;;;;;2.15;0.90;;;;;;;19.76;38.63;101788.47;5073718;28;20032;-62
2021/11/05 05:01:22;;;;;;;1.80;0.85;;;;;;;19.78;38.38;101794.47;5072873;28;20426;-60
2021/11/05 05:03:48;;;;;;;1.63;0.80;;;;;;;19.79;38.58;101797.97;5073342;28;20035;-61
2021/11/05 05:06:13;;;;;;;2.60;0.80;;;;;;;19.78;38.51;101797.13;5073581;28;20025;-61
2021/11/05 05:08:39;;;;;;;3.37;1.03;;;;;;;19.80;38.36;101797.84;5073222;28;20072;-61
2021/11/05 05:11:04;;;;;;;1.20;0.70;;;;;;;19.81;38.04;101799.53;5073353;28;20273;-61
2021/11/05 05:13:36;;;;;;;1.73;0.90;;;;;;;19.82;38.26;101808.31;5073480;28;20028;-61
2021/11/05 05:16:03;;;;;;;3.70;0.90;;;;;;;19.81;38.43;101818.06;5072805;28;20040;-61
2021/11/05 05:18:31;;;;;;;3.33;0.80;;;;;;;19.79;38.37;101814.69;5073603;28;20074;-60
2021/11/05 05:20:57;;;;;;;3.35;0.88;;;;;;;19.77;38.22;101821.03;5072957;28;20488;-61
2021/11/05 05:23:22;;;;;;;2.47;0.90;;;;;;;19.77;38.24;101818.41;5071786;28;20036;-60
2021/11/05 05:25:48;;;;;;;2.35;0.90;;;;;;;19.77;38.11;101828.97;5073290;28;20028;-61
2021/11/05 05:28:13;;;;;;;1.55;0.80;;;;;;;19.74;38.16;101830.00;5072122;28;20059;-60
2021/11/05 05:30:39;;;;;;;2.53;0.70;;;;;;;19.69;38.11;101827.72;5073493;28;20107;-62
2021/11/05 05:33:05;;;;;;;1.10;0.60;;;;;;;19.67;38.40;101831.41;5073133;28;20375;-61
2021/11/05 05:35:30;;;;;;;1.83;0.70;;;;;;;19.65;38.28;101836.81;5072462;28;20402;-61
2021/11/05 05:38:04;;;;;;;1.20;0.77;;;;;;;19.63;38.36;101840.50;5072973;28;20028;-62
2021/11/05 05:40:30;;;;;;;2.03;0.80;;;;;;;19.62;38.26;101834.38;5073107;28;20044;-61
2021/11/05 05:42:56;;;;;;;1.88;0.70;;;;;;;19.62;38.53;101838.84;5071215;28;20053;-62
2021/11/05 05:45:22;;;;;;;3.40;0.80;;;;;;;19.63;38.25;101844.03;5073196;28;20098;-61
2021/11/05 05:47:50;;;;;;;1.35;0.60;;;;;;;19.66;38.52;101842.94;5072941;28;20464;-61
2021/11/05 05:50:17;;;;;;;1.30;0.70;;;;;;;19.68;38.59;101852.47;5071712;28;20371;-61
2021/11/05 05:52:51;;;;;;;1.48;0.88;;;;;;;19.71;38.50;101854.88;5072845;28;20096;-60
2021/11/05 05:55:16;;;;;;;1.67;0.90;;;;;;;19.71;38.51;101854.88;5072421;28;20052;-61
2021/11/05 05:57:42;;;;;;;1.58;0.70;;;;;;;19.71;38.30;101861.97;5071988;28;20368;-61
2021/11/05 06:00:11;;;;;;;0.93;0.60;;;;;;;19.73;38.22;101868.00;5072584;28;20056;-61
2021/11/05 06:02:36;;;;;;;1.85;0.80;;;;;;;19.74;38.19;101867.03;5072787;28;20041;-61
2021/11/05 06:05:02;;;;;;;3.75;0.88;;;;;;;19.74;38.14;101869.66;5071453;28;20368;-61
2021/11/05 06:07:28;;;;;;;2.90;0.63;;;;;;;19.73;38.28;101865.34;5072683;28;20021;-61
2021/11/05 06:09:56;;;;;;;1.13;0.60;;;;;;;19.74;38.12;101877.59;5072509;28;20107;-61
2021/11/05 06:12:22;;;;;;;1.15;0.65;;;;;;;19.73;38.03;101873.28;5071971;28;20037;-62
2021/11/05 06:14:48;;;;;;;1.98;0.70;;;;;;;19.72;38.11;101879.53;5072772;28;20072;-61
2021/11/05 06:17:15;;;;;;;1.80;0.80;;;;;;;19.74;38.30;101882.91;5072180;28;20472;-60
2021/11/05 06:19:40;;;;;;;1.90;0.80;;;;;;;19.74;38.09;101883.75;5071993;28;20029;-61
2021/11/05 06:22:05;;;;;;;1.52;0.70;;;;;;;19.81;38.61;101892.13;5072034;28;20181;-63
2021/11/05 06:24:31;;;;;;;2.65;0.73;;;;;;;19.85;39.37;101895.38;5071733;28;20043;-60
2021/11/05 06:26:56;;;;;;;2.60;0.85;;;;;;;19.92;39.18;101894.84;5073211;28;20055;-63
2021/11/05 06:29:22;;;;;;;1.45;0.70;;;;;;;19.98;39.33;101904.16;5072464;28;20035;-63
2021/11/05 06:31:47;;;;;;;3.13;0.70;;;;;;;20.02;39.58;101908.25;5071660;28;20033;-63
2021/11/05 06:34:12;;;;;;;1.55;0.60;;;;;;;20.10;39.43;101911.16;5071664;28;20480;-61
2021/11/05 06:36:37;;;;;;;1.63;0.57;;;;;;;20.20;39.42;101910.50;5072235;28;20035;-61
2021/11/05 06:39:04;;;;;;;1.20;0.50;;;;;;;20.25;39.41;101911.00;5071026;28;20044;-61
2021/11/05 06:41:29;;;;;;;2.10;0.70;;;;;;;20.32;39.23;101916.72;5072189;28;20287;-63
2021/11/05 06:43:55;;;;;;;1.83;0.68;;;;;;;20.36;39.19;101919.03;5072294;28;20036;-61
2021/11/05 06:46:21;;;;;;;1.15;0.50;;;;;;;20.41;38.96;101926.59;5071120;28;20067;-61
2021/11/05 06:48:46;;;;;;;1.42;0.60;;;;;;;20.42;39.21;101933.59;5071847;28;20020;-62
2021/11/05 06:51:12;;;;;;;0.93;0.50;;;;;;;20.44;39.40;101935.19;5071771;28;20024;-64
2021/11/05 06:53:37;;;;;;;1.40;0.63;;;;;;;20.45;39.41;101942.16;5071140;28;20547;-62
2021/11/05 06:56:03;;;;;;;1.75;0.60;;;;;;;20.49;39.42;101945.44;5071378;28;20064;-62
2021/11/05 06:58:32;;;;;;;1.20;0.60;;;;;;;20.54;39.07;101947.75;5072238;28;20028;-61
2021/11/05 07:00:57;;;;;;;1.48;0.65;;;;;;;20.57;38.88;101958.06;5070878;28;20025;-64
2021/11/05 07:03:23;;;;;;;2.83;0.75;;;;;;;20.59;38.75;101964.97;5071974;28;20044;-62
2021/11/05 07:05:48;;;;;;;1.63;0.70;;;;;;;20.58;38.61;101959.78;5072021;28;20418;-63
2021/11/05 07:08:13;;;;;;;1.60;0.63;;;;;;;20.57;38.78;101964.25;5070846;28;20043;-63
2021/11/05 07:10:39;;;;;;;1.63;0.50;;;;;;;20.55;38.51;101971.44;5072085;28;20027;-61
2021/11/05 07:13:04;;;;;;;1.15;0.55;;;;;;;20.54;38.63;101975.06;5071723;28;20029;-59
2021/11/05 07:15:33;;;;;;;1.60;0.60;;;;;;;20.56;38.10;101974.94;5071177;28;20028;-60
2021/11/05 07:17:58;;;;;;;1.77;0.70;;;;;;;20.60;38.97;101976.38;5071569;28;20025;-61
2021/11/05 07:20:23;;;;;;;2.25;0.60;;;;;;;20.64;38.90;101985.84;5071956;28;20421;-61
2021/11/05 07:22:49;;;;;;;1.40;0.50;;;;;;;20.69;38.89;101993.44;5071120;28;20561;-61
2021/11/05 07:25:15;;;;;;;1.90;0.60;;;;;;;20.73;38.53;102000.19;5071515;28;20036;-60
2021/11/05 07:27:41;;;;;;;3.08;0.80;;;;;;;20.76;38.62;102000.84;5071839;28;20329;-60
2021/11/05 07:30:09;;;;;;;1.17;0.50;;;;;;;20.77;38.86;102007.81;5071144;28;20037;-61
2021/11/05 07:32:37;;;;;;;2.50;0.70;;;;;;;20.78;38.72;102006.03;5071844;28;20035;-60
2021/11/05 07:35:06;;;;;;;0.73;0.50;;;;;;;20.80;39.18;102012.03;5070528;28;20510;-59
2021/11/05 07:37:32;;;;;;;1.55;0.40;;;;;;;20.81;38.68;102013.75;5071810;28;20380;-60
2021/11/05 07:39:58;;;;;;;1.90;0.50;;;;;;;20.80;38.72;102017.34;5071471;28;20021;-60
2021/11/05 07:42:24;;;;;;;1.80;0.60;;;;;;;20.84;38.39;102018.81;5070862;28;20476;-60
2021/11/05 07:44:49;;;;;;;2.22;0.55;;;;;;;20.84;38.27;102026.75;5071587;28;20031;-61
2021/11/05 07:47:21;;;;;;;2.13;0.70;;;;;;;20.79;37.22;102028.88;5074712;28;20033;-61
2021/11/05 07:49:46;;;;;;;2.83;0.70;;;;;;;20.76;38.23;102029.09;5076233;28;20296;-65
2021/11/05 07:52:12;;;;;;;1.95;0.57;;;;;;;20.74;38.35;102036.34;5077951;28;20031;-63
2021/11/05 07:54:37;;;;;;;2.38;0.70;;;;;;;20.77;38.32;102038.75;5078579;28;20032;-63
2021/11/05 07:57:03;;;;;;;2.53;0.63;;;;;;;20.86;38.36;102042.53;5077994;28;20041;-64
2021/11/05 07:59:28;;;;;;;2.17;0.60;;;;;;;20.96;38.29;102043.53;5076399;28;20285;-62
2021/11/05 08:01:53;;;;;;;1.43;0.50;;;;;;;21.08;37.99;102044.41;5077868;28;20051;-63
2021/11/05 08:04:24;;;;;;;1.90;0.60;;;;;;;21.15;37.67;102043.00;5077922;28;20285;-63
2021/11/05 08:06:52;;;;;;;1.25;0.52;;;;;;;21.23;37.50;102051.22;5078638;28;20046;-63
2021/11/05 08:09:17;;;;;;;1.55;0.50;;;;;;;21.29;37.49;102060.53;5076766;28;20039;-63
2021/11/05 08:11:42;;;;;;;1.67;0.50;;;;;;;21.30;37.33;102057.75;5075902;28;20119;-63
2021/11/05 08:14:14;;;;;;;1.38;0.50;;;;;;;21.35;37.29;102062.72;5080241;28;20079;-61
2021/11/05 08:16:40;;;;;;;1.40;0.50;;;;;;;21.38;37.11;102059.84;5081021;28;20464;-62
2021/11/05 08:19:08;;;;;;;1.10;0.50;;;;;;;21.44;37.35;102069.13;5081726;28;20094;-63
2021/11/05 08:21:34;;;;;;;0.93;0.40;;;;;;;21.44;37.66;102074.41;5080652;28;20337;-64
2021/11/05 08:24:00;;;;;;;1.60;0.60;;;;;;;21.46;37.78;102077.78;5079666;28;20024;-63
2021/11/05 08:26:26;;;;;;;2.88;0.65;;;;;;;21.47;37.66;102075.03;5081860;28;20106;-62
2021/11/05 08:28:52;;;;;;;2.03;0.60;;;;;;;21.50;37.22;102089.91;5080845;28;20032;-62
2021/11/05 08:31:18;;;;;;;1.27;0.50;;;;;;;21.52;37.32;102088.84;5079241;28;20535;-63
2021/11/05 08:33:44;;;;;;;2.55;0.70;;;;;;;21.52;37.35;102091.47;5079227;28;20028;-63
2021/11/05 08:36:11;;;;;;;0.65;0.50;;;;;;;21.52;37.45;102091.47;5079727;28;20028;-64
2021/11/05 08:38:37;;;;;;;1.95;0.52;;;;;;;21.51;37.04;102094.25;5078343;28;20030;-63
2021/11/05 08:41:02;;;;;;;1.48;0.50;;;;;;;21.47;37.46;102101.53;5079916;28;20127;-63
2021/11/05 08:43:32;;;;;;;1.90;0.68;;;;;;;21.48;37.69;102102.41;5080293;28;20024;-63
2021/11/05 08:46:00;;;;;;;1.70;0.60;;;;;;;21.47;37.64;102104.19;5079031;28;20484;-63
2021/11/05 08:48:29;;;;;;;1.23;0.40;;;;;;;21.49;37.57;102112.06;5080066;28;20078;-63
2021/11/05 08:50:56;;;;;;;1.40;0.45;;;;;;;21.51;37.65;102113.66;5079827;28;20031;-63
2021/11/05 08:53:21;;;;;;;1.77;0.60;;;;;;;21.53;37.62;102121.50;5079797;28;20021;-63
2021/11/05 08:55:47;;;;;;;1.00;0.50;;;;;;;21.53;37.61;102130.28;5078632;28;20048;-62
2021/11/05 08:58:13;;;;;;;1.33;0.55;;;;;;;21.46;38.33;102129.03;5072531;28;20044;-62
2021/11/05 09:00:38;;;;;;;1.77;0.47;;;;;;;21.42;38.06;102129.38;5073140;28;20032;-62
2021/11/05 09:03:05;;;;;;;0.70;0.40;;;;;;;21.38;38.29;102128.78;5073697;28;20425;-62
2021/11/05 09:05:31;;;;;;;3.30;0.65;;;;;;;21.33;38.46;102131.78;5073957;28;20021;-63
2021/11/05 09:07:56;;;;;;;2.38;0.80;;;;;;;21.28;38.40;102131.25;5072656;28;20031;-62
2021/11/05 09:10:25;;;;;;;1.42;0.70;;;;;;;21.26;38.63;102124.38;5073757;28;20024;-62
2021/11/05 09:12:50;;;;;;;3.25;0.65;;;;;;;21.25;38.65;102130.63;5073700;28;20167;-61
2021/11/05 09:15:19;;;;;;;2.65;0.60;;;;;;;21.24;38.60;102131.59;5072470;28;20130;-62
2021/11/05 09:17:45;;;;;;;1.48;0.50;;;;;;;21.19;38.55;102135.44;5073877;28;20028;-61
2021/11/05 09:20:15;;;;;;;2.85;0.55;;;;;;;21.16;39.11;102137.50;5073203;28;20474;-62
2021/11/05 09:22:41;;;;;;;2.88;0.55;;;;;;;21.17;38.76;102136.50;5073660;28;20032;-63
2021/11/05 09:25:06;;;;;;;1.90;0.50;;;;;;;21.17;39.22;102140.03;5073090;28;20099;-63
2021/11/05 09:27:32;;;;;;;1.58;0.60;;;;;;;21.19;39.22;102135.44;5072688;28;20028;-63
2021/11/05 09:29:58;;;;;;;1.48;0.50;;;;;;;21.22;39.06;102144.13;5072986;28;20039;-62
2021/11/05 09:32:24;;;;;;;1.83;0.43;;;;;;;21.22;39.20;102146.78;5073511;28;20032;-62
2021/11/05 09:34:50;;;;;;;1.65;0.50;;;;;;;21.23;39.16;102146.66;5072632;28;20437;-62
2021/11/05 09:37:16;;;;;;;2.65;0.57;;;;;;;21.22;39.00;102160.03;5072772;28;20094;-61
2021/11/05 09:39:43;;;;;;;0.98;0.50;;;;;;;21.18;39.31;102147.00;5073033;28;20032;-62
2021/11/05 09:42:09;;;;;;;1.58;0.50;;;;;;;21.15;39.38;102159.63;5071852;28;20028;-61
2021/11/05 09:44:44;;;;;;;2.53;0.65;;;;;;;21.13;39.57;102164.22;5073150;28;20064;-61
2021/11/05 09:47:12;;;;;;;1.20;0.50;;;;;;;21.17;39.43;102173.63;5072775;28;20407;-61
2021/11/05 09:49:37;;;;;;;1.58;0.60;;;;;;;21.26;39.38;102165.00;5077786;28;20031;-63
2021/11/05 09:52:05;;;;;;;1.35;0.70;;;;;;;21.33;39.22;102166.25;5079648;28;20029;-61
2021/11/05 09:54:34;;;;;;;1.33;0.50;;;;;;;21.38;39.40;102173.84;5078585;28;20382;-61
2021/11/05 09:57:03;;;;;;;2.85;0.63;;;;;;;21.40;39.05;102174.59;5078680;28;20017;-61
2021/11/05 09:59:31;;;;;;;1.90;0.55;;;;;;;21.44;39.16;102183.16;5079597;28;20165;-63
2021/11/05 10:01:56;;;;;;;1.85;0.57;;;;;;;21.42;39.29;102188.56;5078887;28;20037;-62
2021/11/05 10:04:21;;;;;;;1.60;0.60;;;;;;;21.41;39.23;102202.78;5078082;28;20104;-62
2021/11/05 10:07:10;;;;;;;1.85;0.63;;;;;;;21.37;39.51;102204.81;5079172;28;20044;-63
2021/11/05 10:09:42;;;;;;;3.22;0.75;;;;;;;21.35;39.40;102209.38;5078834;28;20074;-62
2021/11/05 10:12:15;;;;;;;1.42;0.52;;;;;;;21.33;39.35;102206.03;5079134;28;20430;-62
2021/11/05 10:14:43;;;;;;;4.00;0.80;;;;;;;21.35;39.48;102213.88;5079530;28;20055;-62
2021/11/05 10:17:16;;;;;;;1.20;0.40;;;;;;;21.38;39.62;102217.13;5078371;28;20032;-62
2021/11/05 10:19:54;;;;;;;1.55;0.60;;;;;;;21.37;39.72;102218.06;5078735;28;20024;-63
2021/11/05 10:22:59;;;;;;;1.45;0.60;;;;;;;21.31;40.10;102223.81;5079408;28;20074;-62
2021/11/05 10:25:45;;;;;;;3.08;0.73;;;;;;;21.32;40.14;102224.69;4999185;28;20088;-63
2021/11/05 10:28:27;;;;;;;3.30;1.00;;;;;;;21.40;39.93;102238.22;5078919;28;20044;-63
2021/11/05 10:31:01;;;;;;;2.30;0.60;;;;;;;21.50;39.80;102236.59;5081303;28;20502;-61
2021/11/05 10:33:39;;;;;;;1.80;0.70;;;;;;;21.55;39.83;102229.19;5081220;28;20111;-60
2021/11/05 10:36:12;;;;;;;1.98;0.65;;;;;;;21.62;39.67;102240.19;5081291;28;20039;-62
2021/11/05 10:38:43;;;;;;;3.28;0.70;;;;;;;21.66;39.74;102238.13;5080013;28;20037;-64
2021/11/05 10:41:11;;;;;;;1.73;0.57;;;;;;;21.71;39.39;102236.84;5080497;28;20037;-61
2021/11/05 10:43:49;;;;;;;3.05;0.57;;;;;;;21.77;39.43;102240.00;5081122;28;20039;-61
2021/11/05 10:46:34;;;;;;;2.00;0.70;;;;;;;21.70;39.53;102243.09;5071204;28;20028;-60
2021/11/05 10:49:04;;;;;;;2.28;0.60;;;;;;;21.66;39.46;102236.31;5071712;28;20102;-61
2021/11/05 10:51:32;;;;;;;1.58;0.65;;;;;;;21.61;39.87;102241.13;5072105;28;20024;-61
2021/11/05 10:53:59;;;;;;;2.42;0.70;;;;;;;21.55;39.94;102241.56;5070940;28;20055;-61
2021/11/05 10:56:28;;;;;;;1.98;0.73;;;;;;;21.51;39.92;102242.78;5071715;28;20041;-60
2021/11/05 10:59:00;;;;;;;1.90;0.60;;;;;;;21.58;40.11;102240.50;5076188;28;20036;-62
2021/11/05 11:01:34;;;;;;;2.70;0.75;;;;;;;21.64;39.92;102248.84;5077565;28;20103;-62
2021/11/05 11:04:07;;;;;;;2.22;0.70;;;;;;;21.70;39.83;102245.75;5076846;28;20021;-62
2021/11/05 11:07:02;;;;;;;4.05;0.65;;;;;;;21.73;39.76;102250.81;5076721;28;20083;-65
2021/11/05 11:09:34;;;;;;;2.70;0.63;;;;;;;21.77;39.82;102250.59;5073059;28;20052;-62
2021/11/05 11:12:03;;;;;;;1.85;0.52;;;;;;;21.79;39.57;102262.78;5077087;28;20048;-64
2021/11/05 11:14:32;;;;;;;1.65;0.55;;;;;;;21.78;40.00;102258.44;5076143;28;20024;-63
2021/11/05 11:17:00;;;;;;;1.95;0.60;;;;;;;21.76;39.96;102257.69;5075908;28;20049;-64
2021/11/05 11:19:44;;;;;;;1.17;0.50;;;;;;;21.71;40.09;102265.16;5076784;28;20025;-64
2021/11/05 11:22:15;;;;;;;2.85;0.82;;;;;;;21.69;40.17;102262.63;5079252;28;20093;-64
2021/11/05 11:24:41;;;;;;;1.75;0.50;;;;;;;21.66;40.25;102260.19;5080591;28;20029;-63